Loon Lake, WA

10:22 AM PST on November 21, 2014 (GMT -0800)
Williams valley | Change Station
CLOSE
Current Station
Personal Weather Station
Location: Deer Park, WA
Elevation: 2178 ft
Nearby Weather Stations

Elev 2178 ft 47.95 °N, 117.58 °W | Updated 10 seconds ago

Overcast
Overcast
33.6 °F
Feels Like 34 °F
N
0.2
Wind Variable Wind from NNW
Gusts 2.5 mph

Today
High -- | Low -- °F
--% Chance of Precip.
Yesterday
High -- | Low -- °F
Precip. -- in
7:06 AM 4:06 PM
Waning Crescent, 1% visible
Pressure 29.88 in
Visibility 4.0 miles
Clouds Scattered Clouds 2500 ft
Mostly Cloudy 5000 ft
Overcast 6000 ft
Windchill 34 °F
Dew Point 32 °F
Humidity 92%
Rainfall 0.00 in
Snow Depth Not available.
UV 0 out of 12
Pollen .10 out of 12
Air Quality Not available.
Flu Activity Not available.
SPECI KDEW 211813Z AUTO 05003KT 4SM BR SCT025 BKN050 OVC060 02/00 A2988 RMK AO2 T00170000

More Conditions Fewer Conditions

Pressure 29.88 in
Visibility 4.0 miles
Clouds Scattered Clouds 2500 ft
Mostly Cloudy 5000 ft
Overcast 6000 ft
Windchill 34 °F
Dew Point 32 °F
Humidity 92%
Rainfall 0.00 in
Snow Depth Not available.
UV 0 out of 12
Pollen .10 out of 12
Air Quality Not available.
Flu Activity Not available.
SPECI KDEW 211813Z AUTO 05003KT 4SM BR SCT025 BKN050 OVC060 02/00 A2988 RMK AO2 T00170000

More Conditions Fewer Conditions

10-Day Weather Forecast

Almanac

Astronomy

Nov. 21, 2014 Rise Set
Actual Time
Civil Twilight
Nautical Twilight
Astronomical Twilight
Moon
Length of Visible Light
Length of Day
Tomorrow will be .
, % of the Moon is Illuminated

Today's Extremes

State Highs State Lows

Community

WunderPhotos

Upload Photos

1,772,692 photos uploaded!

WunderBlogs® & News

Nearby

Air Quality

  Air Quality AQ Index Pollutant
Not available.

Snow Depth

Station Depth Elevation

Earthquake Activity

City Distance Mag. Time & Date
Minimum magnitude displayed is 2.5.

Coastal Water Temperatures

Place Temperature

Nearby Weather Stations